createdAt,value
2023-02-06T00:01:48.169Z,7.07
2023-02-06T00:06:00.031Z,7.20
2023-02-06T00:10:01.984Z,7.10
2023-02-06T00:14:03.891Z,7.50
2023-02-06T00:18:05.785Z,6.97
2023-02-06T00:22:07.661Z,6.97
2023-02-06T00:26:09.636Z,6.73
2023-02-06T00:30:11.993Z,6.40
2023-02-06T00:34:13.826Z,6.90
2023-02-06T00:38:15.625Z,6.93
2023-02-06T00:42:17.435Z,7.47
2023-02-06T00:46:19.227Z,7.33
2023-02-06T00:50:21.156Z,7.00
2023-02-06T00:54:23.093Z,7.23
2023-02-06T00:58:24.874Z,7.67
2023-02-06T01:02:26.834Z,7.07
2023-02-06T01:06:28.822Z,6.67
2023-02-06T01:10:30.580Z,7.17
2023-02-06T01:14:32.381Z,6.87
2023-02-06T01:18:34.162Z,7.13
2023-02-06T01:22:36.190Z,6.90
2023-02-06T01:26:38.504Z,6.83
2023-02-06T01:30:40.456Z,7.13
2023-02-06T01:34:42.307Z,6.90
2023-02-06T01:38:44.177Z,6.27
2023-02-06T01:42:45.963Z,6.57
2023-02-06T01:46:52.012Z,7.00
2023-02-06T01:50:54.669Z,7.70
2023-02-06T01:54:59.552Z,7.27
2023-02-06T01:59:03.073Z,6.90
2023-02-06T02:03:04.986Z,6.80
2023-02-06T02:07:16.893Z,7.37
2023-02-06T02:11:24.291Z,7.10
2023-02-06T02:15:38.134Z,6.00
2023-02-06T02:20:17.488Z,6.67
2023-02-06T02:24:32.402Z,7.20
2023-02-06T02:28:34.170Z,6.43
2023-02-06T02:33:03.663Z,6.50
2023-02-06T02:37:22.802Z,7.17
2023-02-06T02:41:38.907Z,7.27
2023-02-06T02:45:48.136Z,7.00
2023-02-06T02:49:49.905Z,6.50
2023-02-06T02:53:51.679Z,7.00
2023-02-06T02:57:58.026Z,6.73
2023-02-06T03:02:10.427Z,6.77
2023-02-06T03:06:51.542Z,6.67
2023-02-06T03:11:13.973Z,7.07
2023-02-06T03:15:24.849Z,7.33
2023-02-06T03:19:35.422Z,6.80
2023-02-06T03:23:39.213Z,7.33
2023-02-06T03:27:41.441Z,6.70
2023-02-06T03:32:16.722Z,7.10
2023-02-06T03:36:20.131Z,6.43
2023-02-06T03:40:22.031Z,6.53
2023-02-06T03:44:26.620Z,5.50
2023-02-06T03:48:36.146Z,5.80
2023-02-06T03:52:41.261Z,6.00
2023-02-06T03:56:54.039Z,5.80
2023-02-06T04:00:55.802Z,5.60
2023-02-06T04:04:57.615Z,5.60
2023-02-06T04:08:59.456Z,5.17
2023-02-06T04:13:01.262Z,5.27
2023-02-06T04:17:04.751Z,5.60
2023-02-06T04:21:07.086Z,5.20
2023-02-06T04:25:09.131Z,5.13
2023-02-06T04:29:12.788Z,5.83
2023-02-06T04:33:14.518Z,6.03
2023-02-06T04:37:16.283Z,5.70
2023-02-06T04:41:18.133Z,5.57
2023-02-06T04:45:19.938Z,5.50
2023-02-06T04:49:24.682Z,5.67
2023-02-06T04:53:26.527Z,5.27
2023-02-06T04:57:28.366Z,5.70
2023-02-06T05:01:30.364Z,6.43
2023-02-06T05:05:32.203Z,4.43
2023-02-06T05:09:34.028Z,4.53
2023-02-06T05:13:35.852Z,4.60
2023-02-06T05:17:38.683Z,4.37
2023-02-06T05:21:40.503Z,3.90
2023-02-06T05:25:42.426Z,4.87
2023-02-06T05:29:44.292Z,4.07
2023-02-06T05:33:48.289Z,4.60
2023-02-06T05:37:51.204Z,4.90
2023-02-06T05:41:53.225Z,4.23
2023-02-06T05:45:55.140Z,4.40
2023-02-06T05:50:01.549Z,4.37
2023-02-06T05:54:03.699Z,4.80
2023-02-06T05:58:06.395Z,5.13
2023-02-06T06:02:08.430Z,5.37
2023-02-06T06:06:10.781Z,4.70
2023-02-06T06:10:12.626Z,4.53
2023-02-06T06:14:14.754Z,5.47
2023-02-06T06:18:16.866Z,4.77
2023-02-06T06:22:18.821Z,5.73
2023-02-06T06:26:20.794Z,5.77
2023-02-06T06:30:22.732Z,5.10
2023-02-06T06:34:37.136Z,5.20
2023-02-06T06:38:44.846Z,6.80
2023-02-06T06:42:46.795Z,6.63
2023-02-06T06:46:48.531Z,7.90
2023-02-06T06:50:53.904Z,6.43
2023-02-06T06:54:55.707Z,6.10
2023-02-06T06:58:57.484Z,6.93
2023-02-06T07:02:59.324Z,5.87
2023-02-06T07:07:01.364Z,6.10
2023-02-06T07:11:03.312Z,7.10
2023-02-06T07:15:06.046Z,6.80
2023-02-06T07:19:10.556Z,6.40
2023-02-06T07:23:12.445Z,6.63
2023-02-06T07:27:14.431Z,6.87
2023-02-06T07:31:16.316Z,7.57
2023-02-06T07:35:18.185Z,7.73
2023-02-06T07:39:20.323Z,7.53
2023-02-06T07:43:22.104Z,7.40
2023-02-06T07:47:23.951Z,7.17
2023-02-06T07:51:25.837Z,6.77
2023-02-06T07:55:27.812Z,7.70
2023-02-06T07:59:32.683Z,8.03
2023-02-06T08:03:34.848Z,7.17
2023-02-06T08:07:36.874Z,7.47
2023-02-06T08:11:38.783Z,7.93
2023-02-06T08:15:40.678Z,9.57
2023-02-06T08:19:46.010Z,9.13
2023-02-06T08:23:53.282Z,7.97
2023-02-06T08:27:55.458Z,7.80
2023-02-06T08:31:57.354Z,7.73
2023-02-06T08:36:02.909Z,7.17
2023-02-06T08:40:05.398Z,7.47
2023-02-06T08:44:14.445Z,8.27
2023-02-06T08:48:16.352Z,7.90
2023-02-06T08:52:18.361Z,7.43
2023-02-06T08:56:20.369Z,8.33
2023-02-06T09:00:22.573Z,6.83
2023-02-06T09:04:24.416Z,7.83
2023-02-06T09:08:26.234Z,8.50
2023-02-06T09:12:27.969Z,8.93
2023-02-06T09:16:30.146Z,9.47
2023-02-06T09:20:32.188Z,9.80
2023-02-06T09:24:34.064Z,7.97
2023-02-06T09:28:36.150Z,8.97
2023-02-06T09:32:40.180Z,7.83
2023-02-06T09:36:42.213Z,7.60
2023-02-06T09:40:45.280Z,7.77
2023-02-06T09:44:51.409Z,8.47
2023-02-06T09:48:53.545Z,8.80
2023-02-06T09:53:26.107Z,9.07
2023-02-06T09:58:02.010Z,8.43
2023-02-06T10:02:46.345Z,9.10
2023-02-06T10:07:22.358Z,8.97
2023-02-06T10:11:34.946Z,8.47
2023-02-06T10:15:46.253Z,9.70
2023-02-06T10:20:13.837Z,9.10
2023-02-06T10:24:47.380Z,9.47
2023-02-06T10:28:56.077Z,10.07
2023-02-06T10:33:24.836Z,10.77
2023-02-06T10:37:55.538Z,9.70
2023-02-06T10:42:17.962Z,10.57
2023-02-06T10:46:51.010Z,11.10
2023-02-06T10:50:58.790Z,11.10
2023-02-06T10:55:38.804Z,11.10
2023-02-06T10:59:46.176Z,11.90
2023-02-06T11:04:24.181Z,11.47
2023-02-06T11:08:30.290Z,12.20
2023-02-06T11:12:41.997Z,11.17
2023-02-06T11:16:44.082Z,11.53
2023-02-06T11:20:46.295Z,10.63
2023-02-06T11:25:03.029Z,11.77
2023-02-06T11:29:37.416Z,11.90
2023-02-06T11:33:47.954Z,13.23
2023-02-06T11:37:54.117Z,12.57
2023-02-06T11:42:22.280Z,13.47
2023-02-06T11:46:26.849Z,14.20
2023-02-06T11:50:37.077Z,13.90
2023-02-06T11:54:39.050Z,12.80
2023-02-06T11:58:40.825Z,12.87
2023-02-06T12:02:42.654Z,13.30
2023-02-06T12:06:44.516Z,12.00
2023-02-06T12:11:01.975Z,9.27
2023-02-06T12:15:46.194Z,10.10
2023-02-06T12:19:50.431Z,10.40
2023-02-06T12:24:03.506Z,12.00
2023-02-06T12:28:37.897Z,13.50
2023-02-06T12:32:43.128Z,12.70
2023-02-06T12:37:00.187Z,11.93
2023-02-06T12:41:40.102Z,11.67
2023-02-06T12:46:08.768Z,13.30
2023-02-06T12:50:27.539Z,13.47
2023-02-06T12:54:44.613Z,14.70
2023-02-06T12:59:12.109Z,14.03
2023-02-06T13:03:35.596Z,13.77
2023-02-06T13:07:49.062Z,15.10
2023-02-06T13:11:51.686Z,14.40
2023-02-06T13:15:57.335Z,14.70
2023-02-06T13:20:09.156Z,14.07
2023-02-06T13:24:16.555Z,15.30
2023-02-06T13:28:26.010Z,15.40
2023-02-06T13:32:39.946Z,14.83
2023-02-06T13:36:51.076Z,14.10
2023-02-06T13:41:14.580Z,15.30
2023-02-06T13:45:46.511Z,13.83
2023-02-06T13:50:05.840Z,13.03
2023-02-06T13:54:37.990Z,13.77
2023-02-06T13:58:54.354Z,13.73
2023-02-06T14:03:09.594Z,13.03
2023-02-06T14:07:42.057Z,13.57
2023-02-06T14:12:21.136Z,12.37
2023-02-06T14:16:52.687Z,12.40
2023-02-06T14:21:16.719Z,11.97
2023-02-06T14:25:48.978Z,12.87
2023-02-06T14:30:42.560Z,12.73
2023-02-06T14:34:55.140Z,13.40
2023-02-06T14:39:28.065Z,13.17
2023-02-06T14:43:36.090Z,13.47
2023-02-06T14:47:43.197Z,13.13
2023-02-06T14:51:48.528Z,13.23
2023-02-06T14:55:50.556Z,14.00
2023-02-06T15:00:00.904Z,14.10
2023-02-06T15:04:12.935Z,12.50
2023-02-06T15:08:20.095Z,12.13
2023-02-06T15:12:29.139Z,11.83
2023-02-06T15:16:33.159Z,11.43
2023-02-06T15:20:43.550Z,12.17
2023-02-06T15:25:00.752Z,12.33
2023-02-06T15:29:06.371Z,12.43
2023-02-06T15:33:11.859Z,13.63
2023-02-06T15:37:35.517Z,13.33
2023-02-06T15:41:45.684Z,13.60
2023-02-06T15:50:32.331Z,14.47
2023-02-06T15:54:34.204Z,13.90
2023-02-06T15:58:37.065Z,13.57
2023-02-06T16:02:39.238Z,14.67
2023-02-06T16:06:41.461Z,14.57
2023-02-06T16:10:56.589Z,13.80
2023-02-06T16:15:00.282Z,13.13
2023-02-06T16:19:03.423Z,13.10
2023-02-06T16:23:31.587Z,13.20
2023-02-06T16:27:38.334Z,13.70
2023-02-06T16:31:43.142Z,11.33
2023-02-06T16:35:45.076Z,10.47
2023-02-06T16:39:51.539Z,7.90
2023-02-06T16:43:54.501Z,8.17
2023-02-06T16:47:59.080Z,8.07
2023-02-06T16:52:02.489Z,8.80
2023-02-06T16:56:09.926Z,7.57
2023-02-06T17:00:23.731Z,6.43
2023-02-06T17:04:29.141Z,6.93
2023-02-06T17:08:32.734Z,6.97
2023-02-06T17:12:37.852Z,8.73
2023-02-06T17:16:42.859Z,7.40
2023-02-06T17:20:52.103Z,6.87
2023-02-06T17:24:59.030Z,7.13
2023-02-06T17:29:01.375Z,6.40
2023-02-06T17:33:04.645Z,9.10
2023-02-06T17:37:17.009Z,8.80
2023-02-06T17:41:19.200Z,7.67
2023-02-06T17:45:21.153Z,7.63
2023-02-06T17:49:23.600Z,8.67
2023-02-06T17:53:25.679Z,9.47
2023-02-06T17:57:56.198Z,8.23
2023-02-06T18:01:56.746Z,9.87
2023-02-06T18:06:04.472Z,10.60
2023-02-06T18:10:07.548Z,10.53
2023-02-06T18:14:10.148Z,8.53
2023-02-06T18:18:32.118Z,10.37
2023-02-06T18:22:41.423Z,14.13
2023-02-06T18:26:47.119Z,14.10
2023-02-06T18:30:52.422Z,14.87
2023-02-06T18:34:59.203Z,14.20
2023-02-06T18:39:05.880Z,13.63
2023-02-06T18:43:15.753Z,15.43
2023-02-06T18:47:19.046Z,16.97
2023-02-06T18:51:28.102Z,17.90
2023-02-06T18:55:40.567Z,17.87
2023-02-06T18:59:50.369Z,17.87
2023-02-06T19:03:55.529Z,17.03
2023-02-06T19:07:59.293Z,18.13
2023-02-06T19:12:13.120Z,15.87
2023-02-06T19:16:46.874Z,16.83
2023-02-06T19:29:35.977Z,20.13
2023-02-06T19:33:50.994Z,18.63
2023-02-06T19:38:03.514Z,17.43
2023-02-06T19:42:06.808Z,17.67
2023-02-06T19:46:14.291Z,18.33
2023-02-06T19:50:43.454Z,21.67
2023-02-06T19:54:50.188Z,20.63
2023-02-06T19:59:20.063Z,19.80
2023-02-06T20:03:22.504Z,20.50
2023-02-06T20:07:28.099Z,19.33
2023-02-06T20:11:31.629Z,20.43
2023-02-06T20:15:51.469Z,19.13
2023-02-06T20:19:59.875Z,18.70
2023-02-06T20:24:03.817Z,20.37
2023-02-06T20:28:06.290Z,22.73
2023-02-06T20:32:08.360Z,20.93
2023-02-06T20:36:47.515Z,21.50
2023-02-06T20:41:04.556Z,20.50
2023-02-06T20:45:27.393Z,20.13
2023-02-06T20:49:42.206Z,21.13
2023-02-06T20:53:44.192Z,23.17
2023-02-06T20:57:48.879Z,23.07
2023-02-06T21:01:50.697Z,20.43
2023-02-06T21:05:57.599Z,19.90
2023-02-06T21:10:02.362Z,21.30
2023-02-06T21:14:04.819Z,22.43
2023-02-06T21:18:06.665Z,20.00
2023-02-06T21:22:08.707Z,20.83
2023-02-06T21:26:12.221Z,21.50
2023-02-06T21:30:14.405Z,18.93
2023-02-06T21:34:21.692Z,20.50
2023-02-06T21:38:24.429Z,20.67
2023-02-06T21:42:29.162Z,21.63
2023-02-06T21:46:31.102Z,19.20
2023-02-06T21:50:33.978Z,18.97
2023-02-06T21:54:38.979Z,19.23
2023-02-06T21:58:40.979Z,19.13
2023-02-06T22:02:42.936Z,19.90
2023-02-06T22:06:44.928Z,18.57
2023-02-06T22:10:46.720Z,18.57
2023-02-06T22:14:48.684Z,18.33
2023-02-06T22:18:50.530Z,17.97
2023-02-06T22:22:53.896Z,18.03
2023-02-06T22:26:55.898Z,18.03
2023-02-06T22:31:08.564Z,17.67
2023-02-06T22:35:10.575Z,17.03
2023-02-06T22:39:13.322Z,17.20
2023-02-06T22:43:15.022Z,16.63
2023-02-06T22:47:17.205Z,15.40
2023-02-06T22:51:19.109Z,15.73
2023-02-06T22:55:20.817Z,15.57
2023-02-06T22:59:24.730Z,16.13
2023-02-06T23:03:26.509Z,16.10
2023-02-06T23:07:28.334Z,17.03
2023-02-06T23:11:31.815Z,17.00
2023-02-06T23:15:33.605Z,16.07
2023-02-06T23:19:35.372Z,16.30
2023-02-06T23:23:37.883Z,15.70
2023-02-06T23:27:39.694Z,14.27
2023-02-06T23:31:42.029Z,13.87
2023-02-06T23:35:44.001Z,14.27
2023-02-06T23:39:46.023Z,14.93
2023-02-06T23:43:58.895Z,13.50
2023-02-06T23:48:00.854Z,13.63
2023-02-06T23:52:02.711Z,13.80
2023-02-06T23:56:22.851Z,13.73
